sensor_id;sensor_type;location;lat;lon;timestamp;pressure;altitude;pressure_sealevel;temperature;humidity
61484;BME280;47349;55.640;37.692;2023-07-13T00:01:03;98308.41;;;12.46;91.71
61484;BME280;47349;55.640;37.692;2023-07-13T00:03:31;98277.31;;;12.38;92.16
61484;BME280;47349;55.640;37.692;2023-07-13T00:06:22;98270.44;;;12.17;92.17
61484;BME280;47349;55.640;37.692;2023-07-13T00:08:54;98329.50;;;12.49;92.44
61484;BME280;47349;55.640;37.692;2023-07-13T00:11:25;98335.75;;;12.61;92.81
61484;BME280;47349;55.640;37.692;2023-07-13T00:14:08;98325.16;;;12.48;92.66
61484;BME280;47349;55.640;37.692;2023-07-13T00:16:39;98311.56;;;12.43;93.13
61484;BME280;47349;55.640;37.692;2023-07-13T00:19:45;98272.94;;;12.19;93.36
61484;BME280;47349;55.640;37.692;2023-07-13T00:22:32;98295.94;;;12.33;93.14
61484;BME280;47349;55.640;37.692;2023-07-13T00:25:21;98337.47;;;12.55;93.48
61484;BME280;47349;55.640;37.692;2023-07-13T00:28:04;98341.72;;;12.45;93.66
61484;BME280;47349;55.640;37.692;2023-07-13T00:30:32;98338.25;;;12.38;93.80
61484;BME280;47349;55.640;37.692;2023-07-13T00:32:59;98334.88;;;12.49;93.84
61484;BME280;47349;55.640;37.692;2023-07-13T00:35:46;98330.25;;;12.31;93.97
61484;BME280;47349;55.640;37.692;2023-07-13T00:38:15;98330.72;;;12.46;93.44
61484;BME280;47349;55.640;37.692;2023-07-13T00:40:42;98318.63;;;12.37;93.69
61484;BME280;47349;55.640;37.692;2023-07-13T00:43:16;98321.47;;;12.42;93.94
61484;BME280;47349;55.640;37.692;2023-07-13T00:48:14;98333.81;;;12.50;94.08
61484;BME280;47349;55.640;37.692;2023-07-13T00:50:47;98335.44;;;12.51;94.28
61484;BME280;47349;55.640;37.692;2023-07-13T00:53:15;98314.47;;;12.41;94.03
61484;BME280;47349;55.640;37.692;2023-07-13T00:55:43;98330.97;;;12.45;94.12
61484;BME280;47349;55.640;37.692;2023-07-13T00:58:11;98326.25;;;12.40;93.99
61484;BME280;47349;55.640;37.692;2023-07-13T01:00:39;98332.19;;;12.49;94.25
61484;BME280;47349;55.640;37.692;2023-07-13T01:03:07;98320.59;;;12.48;94.18
61484;BME280;47349;55.640;37.692;2023-07-13T01:05:35;98331.72;;;12.52;94.03
61484;BME280;47349;55.640;37.692;2023-07-13T01:08:06;98323.66;;;12.52;94.33
61484;BME280;47349;55.640;37.692;2023-07-13T01:10:34;98290.63;;;12.26;94.79
61484;BME280;47349;55.640;37.692;2023-07-13T01:13:07;98325.88;;;12.37;94.75
61484;BME280;47349;55.640;37.692;2023-07-13T01:15:39;98344.56;;;12.50;95.19
61484;BME280;47349;55.640;37.692;2023-07-13T01:18:09;98345.63;;;12.49;95.43
61484;BME280;47349;55.640;37.692;2023-07-13T01:20:38;98335.28;;;12.46;95.67
61484;BME280;47349;55.640;37.692;2023-07-13T01:23:08;98327.06;;;12.41;95.79
61484;BME280;47349;55.640;37.692;2023-07-13T01:25:36;98302.84;;;12.22;95.99
61484;BME280;47349;55.640;37.692;2023-07-13T01:28:06;98323.94;;;12.44;95.58
61484;BME280;47349;55.640;37.692;2023-07-13T01:30:38;98333.88;;;12.43;96.68
61484;BME280;47349;55.640;37.692;2023-07-13T01:33:08;98314.53;;;12.34;96.30
61484;BME280;47349;55.640;37.692;2023-07-13T01:35:37;98301.31;;;12.33;96.94
61484;BME280;47349;55.640;37.692;2023-07-13T01:38:04;98319.00;;;12.41;96.98
61484;BME280;47349;55.640;37.692;2023-07-13T01:40:32;98324.38;;;12.41;97.45
61484;BME280;47349;55.640;37.692;2023-07-13T01:42:59;98292.72;;;12.24;96.91
61484;BME280;47349;55.640;37.692;2023-07-13T01:45:27;98317.38;;;12.40;97.67
61484;BME280;47349;55.640;37.692;2023-07-13T01:47:55;98313.25;;;12.37;97.53
61484;BME280;47349;55.640;37.692;2023-07-13T01:50:22;98325.00;;;12.43;97.45
61484;BME280;47349;55.640;37.692;2023-07-13T01:52:49;98291.28;;;12.22;97.85
61484;BME280;47349;55.640;37.692;2023-07-13T01:55:17;98311.19;;;12.39;97.88
61484;BME280;47349;55.640;37.692;2023-07-13T01:57:45;98302.56;;;12.30;97.69
61484;BME280;47349;55.640;37.692;2023-07-13T02:00:13;98294.75;;;12.29;98.26
61484;BME280;47349;55.640;37.692;2023-07-13T02:02:47;98279.56;;;12.16;98.63
61484;BME280;47349;55.640;37.692;2023-07-13T02:05:14;98281.59;;;12.21;98.26
61484;BME280;47349;55.640;37.692;2023-07-13T02:07:42;98284.28;;;12.21;98.71
61484;BME280;47349;55.640;37.692;2023-07-13T02:10:10;98300.47;;;12.32;98.58
61484;BME280;47349;55.640;37.692;2023-07-13T02:12:39;98307.53;;;12.33;98.64
61484;BME280;47349;55.640;37.692;2023-07-13T02:15:06;98281.16;;;12.24;98.88
61484;BME280;47349;55.640;37.692;2023-07-13T02:17:35;98295.56;;;12.29;98.77
61484;BME280;47349;55.640;37.692;2023-07-13T02:20:04;98307.53;;;12.33;99.40
61484;BME280;47349;55.640;37.692;2023-07-13T02:22:32;98277.47;;;12.18;98.89
61484;BME280;47349;55.640;37.692;2023-07-13T02:25:00;98299.63;;;12.39;98.91
61484;BME280;47349;55.640;37.692;2023-07-13T02:27:29;98278.16;;;12.32;98.78
61484;BME280;47349;55.640;37.692;2023-07-13T02:29:56;98301.84;;;12.42;98.55
61484;BME280;47349;55.640;37.692;2023-07-13T02:32:24;98285.94;;;12.40;98.11
61484;BME280;47349;55.640;37.692;2023-07-13T02:34:53;98295.81;;;12.46;98.16
61484;BME280;47349;55.640;37.692;2023-07-13T02:37:21;98272.59;;;12.33;98.37
61484;BME280;47349;55.640;37.692;2023-07-13T02:39:48;98276.44;;;12.38;98.79
61484;BME280;47349;55.640;37.692;2023-07-13T02:42:16;98299.47;;;12.52;98.71
61484;BME280;47349;55.640;37.692;2023-07-13T02:44:44;98301.56;;;12.50;98.66
61484;BME280;47349;55.640;37.692;2023-07-13T02:47:11;98271.78;;;12.33;98.91
61484;BME280;47349;55.640;37.692;2023-07-13T02:49:40;98280.16;;;12.43;99.14
61484;BME280;47349;55.640;37.692;2023-07-13T02:52:07;98277.22;;;12.45;99.21
61484;BME280;47349;55.640;37.692;2023-07-13T02:54:34;98284.22;;;12.46;98.54
61484;BME280;47349;55.640;37.692;2023-07-13T02:57:02;98286.66;;;12.54;99.04
61484;BME280;47349;55.640;37.692;2023-07-13T02:59:29;98284.09;;;12.59;98.71
61484;BME280;47349;55.640;37.692;2023-07-13T03:01:56;98282.31;;;12.53;98.70
61484;BME280;47349;55.640;37.692;2023-07-13T03:04:24;98295.28;;;12.56;98.85
61484;BME280;47349;55.640;37.692;2023-07-13T03:06:51;98289.19;;;12.49;98.99
61484;BME280;47349;55.640;37.692;2023-07-13T03:09:19;98274.09;;;12.48;99.02
61484;BME280;47349;55.640;37.692;2023-07-13T03:11:55;98302.78;;;12.54;99.22
61484;BME280;47349;55.640;37.692;2023-07-13T03:14:28;98296.19;;;12.50;99.94
61484;BME280;47349;55.640;37.692;2023-07-13T03:16:56;98290.22;;;12.48;100.00
61484;BME280;47349;55.640;37.692;2023-07-13T03:19:27;98278.13;;;12.39;100.00
61484;BME280;47349;55.640;37.692;2023-07-13T03:21:57;98279.63;;;12.53;100.00
61484;BME280;47349;55.640;37.692;2023-07-13T03:28:11;98295.69;;;12.59;100.00
61484;BME280;47349;55.640;37.692;2023-07-13T04:12:23;98293.22;;;12.95;97.33
61484;BME280;47349;55.640;37.692;2023-07-13T04:23:53;98317.28;;;13.26;96.45
61484;BME280;47349;55.640;37.692;2023-07-13T04:27:58;98295.16;;;13.24;96.11
61484;BME280;47349;55.640;37.692;2023-07-13T04:41:06;98256.16;;;13.15;95.89
61484;BME280;47349;55.640;37.692;2023-07-13T04:43:34;98296.63;;;13.38;95.84
61484;BME280;47349;55.640;37.692;2023-07-13T04:53:36;98285.53;;;13.47;95.14
61484;BME280;47349;55.640;37.692;2023-07-13T04:56:05;98272.88;;;13.35;95.33
61484;BME280;47349;55.640;37.692;2023-07-13T04:58:34;98280.16;;;13.47;95.46
61484;BME280;47349;55.640;37.692;2023-07-13T05:01:04;98289.81;;;13.66;95.23
61484;BME280;47349;55.640;37.692;2023-07-13T05:09:52;98252.31;;;13.53;93.53
61484;BME280;47349;55.640;37.692;2023-07-13T05:19:23;98306.78;;;14.20;91.07
61484;BME280;47349;55.640;37.692;2023-07-13T05:21:51;98305.41;;;14.29;91.05
61484;BME280;47349;55.640;37.692;2023-07-13T05:24:39;98269.66;;;14.34;89.77
61484;BME280;47349;55.640;37.692;2023-07-13T05:27:30;98302.25;;;14.68;89.21
61484;BME280;47349;55.640;37.692;2023-07-13T05:30:15;98272.50;;;14.51;87.37
61484;BME280;47349;55.640;37.692;2023-07-13T05:32:57;98305.53;;;14.70;87.19
61484;BME280;47349;55.640;37.692;2023-07-13T05:35:25;98293.34;;;14.67;87.05
61484;BME280;47349;55.640;37.692;2023-07-13T05:38:01;98290.03;;;14.88;86.15
61484;BME280;47349;55.640;37.692;2023-07-13T05:41:08;98269.44;;;14.59;86.10
61484;BME280;47349;55.640;37.692;2023-07-13T05:44:23;98296.38;;;14.94;84.67
61484;BME280;47349;55.640;37.692;2023-07-13T05:47:02;98293.53;;;15.01;84.52
61484;BME280;47349;55.640;37.692;2023-07-13T05:49:53;98261.16;;;14.89;84.15
61484;BME280;47349;55.640;37.692;2023-07-13T05:53:02;98287.06;;;15.02;83.45
61484;BME280;47349;55.640;37.692;2023-07-13T05:55:50;98270.88;;;15.02;83.01
61484;BME280;47349;55.640;37.692;2023-07-13T05:58:34;98248.22;;;15.03;81.91
61484;BME280;47349;55.640;37.692;2023-07-13T06:01:13;98259.47;;;15.11;82.03
61484;BME280;47349;55.640;37.692;2023-07-13T06:03:44;98252.00;;;15.02;81.82
61484;BME280;47349;55.640;37.692;2023-07-13T06:06:13;98270.53;;;14.98;80.90
61484;BME280;47349;55.640;37.692;2023-07-13T06:08:56;98262.75;;;15.13;80.00
61484;BME280;47349;55.640;37.692;2023-07-13T06:11:31;98250.59;;;14.99;78.89
61484;BME280;47349;55.640;37.692;2023-07-13T06:14:13;98254.97;;;15.29;78.71
61484;BME280;47349;55.640;37.692;2023-07-13T06:16:57;98299.28;;;15.61;77.75
61484;BME280;47349;55.640;37.692;2023-07-13T06:19:28;98271.97;;;15.58;78.15
61484;BME280;47349;55.640;37.692;2023-07-13T06:22:15;98271.09;;;15.69;76.87
61484;BME280;47349;55.640;37.692;2023-07-13T06:25:02;98280.63;;;15.88;76.31
61484;BME280;47349;55.640;37.692;2023-07-13T06:27:47;98238.25;;;15.60;75.57
61484;BME280;47349;55.640;37.692;2023-07-13T06:30:32;98240.50;;;15.80;75.49
61484;BME280;47349;55.640;37.692;2023-07-13T06:33:14;98257.72;;;16.25;73.74
61484;BME280;47349;55.640;37.692;2023-07-13T06:35:57;98266.59;;;16.59;69.96
61484;BME280;47349;55.640;37.692;2023-07-13T06:38:40;98251.44;;;16.41;70.79
61484;BME280;47349;55.640;37.692;2023-07-13T06:41:25;98266.00;;;16.57;70.11
61484;BME280;47349;55.640;37.692;2023-07-13T06:44:13;98257.47;;;16.65;69.52
61484;BME280;47349;55.640;37.692;2023-07-13T06:46:43;98245.44;;;16.56;69.78
61484;BME280;47349;55.640;37.692;2023-07-13T06:49:12;98233.88;;;16.60;69.60
61484;BME280;47349;55.640;37.692;2023-07-13T06:51:54;98255.94;;;16.91;69.15
61484;BME280;47349;55.640;37.692;2023-07-13T06:54:25;98258.19;;;16.77;69.04
61484;BME280;47349;55.640;37.692;2023-07-13T06:57:07;98265.75;;;16.75;68.02
61484;BME280;47349;55.640;37.692;2023-07-13T07:00:24;98219.13;;;16.51;67.42
61484;BME280;47349;55.640;37.692;2023-07-13T07:03:09;98270.28;;;16.91;67.13
61484;BME280;47349;55.640;37.692;2023-07-13T07:05:48;98231.25;;;16.49;66.71
61484;BME280;47349;55.640;37.692;2023-07-13T07:08:42;98264.94;;;16.58;64.07
61484;BME280;47349;55.640;37.692;2023-07-13T07:11:24;98281.81;;;16.48;66.34
61484;BME280;47349;55.640;37.692;2023-07-13T07:13:53;98284.38;;;16.55;64.96
61484;BME280;47349;55.640;37.692;2023-07-13T07:16:39;98252.94;;;16.32;65.72
61484;BME280;47349;55.640;37.692;2023-07-13T07:20:37;98243.41;;;16.29;65.88
61484;BME280;47349;55.640;37.692;2023-07-13T07:23:19;98271.75;;;16.43;66.82
61484;BME280;47349;55.640;37.692;2023-07-13T07:25:50;98262.53;;;16.39;66.97
61484;BME280;47349;55.640;37.692;2023-07-13T07:28:35;98295.19;;;16.55;67.64
61484;BME280;47349;55.640;37.692;2023-07-13T07:31:27;98264.44;;;16.61;66.57
61484;BME280;47349;55.640;37.692;2023-07-13T07:34:04;98262.81;;;16.60;67.30
61484;BME280;47349;55.640;37.692;2023-07-13T07:36:34;98262.22;;;16.58;66.75
61484;BME280;47349;55.640;37.692;2023-07-13T07:40:04;98296.63;;;16.62;66.89
61484;BME280;47349;55.640;37.692;2023-07-13T07:43:31;98274.53;;;16.49;66.94
61484;BME280;47349;55.640;37.692;2023-07-13T07:46:22;98266.25;;;16.55;67.58
61484;BME280;47349;55.640;37.692;2023-07-13T07:49:40;98261.34;;;16.52;67.49
61484;BME280;47349;55.640;37.692;2023-07-13T07:52:54;98276.97;;;16.67;67.59
61484;BME280;47349;55.640;37.692;2023-07-13T07:56:14;98294.81;;;16.68;68.78
61484;BME280;47349;55.640;37.692;2023-07-13T07:59:36;98292.22;;;16.56;69.62
61484;BME280;47349;55.640;37.692;2023-07-13T08:02:48;98262.16;;;16.53;69.74
61484;BME280;47349;55.640;37.692;2023-07-13T08:05:54;98270.13;;;16.42;70.57
61484;BME280;47349;55.640;37.692;2023-07-13T08:08:50;98292.91;;;16.63;71.61
61484;BME280;47349;55.640;37.692;2023-07-13T08:11:21;98294.47;;;16.59;71.76
61484;BME280;47349;55.640;37.692;2023-07-13T08:13:51;98286.88;;;16.39;71.86
61484;BME280;47349;55.640;37.692;2023-07-13T08:16:39;98277.38;;;16.20;71.54
61484;BME280;47349;55.640;37.692;2023-07-13T08:22:24;98293.91;;;16.40;70.85
61484;BME280;47349;55.640;37.692;2023-07-13T08:32:04;98305.59;;;16.46;66.84
61484;BME280;47349;55.640;37.692;2023-07-13T08:35:36;98309.13;;;16.47;68.63
61484;BME280;47349;55.640;37.692;2023-07-13T08:40:25;98283.75;;;16.31;65.10
61484;BME280;47349;55.640;37.692;2023-07-13T08:44:20;98274.59;;;16.15;67.75
61484;BME280;47349;55.640;37.692;2023-07-13T08:49:26;98289.66;;;16.11;69.22
61484;BME280;47349;55.640;37.692;2023-07-13T08:53:11;98291.44;;;15.88;69.86
61484;BME280;47349;55.640;37.692;2023-07-13T08:56:19;98300.31;;;16.01;70.56
61484;BME280;47349;55.640;37.692;2023-07-13T08:59:49;98269.00;;;15.88;71.04
61484;BME280;47349;55.640;37.692;2023-07-13T09:02:53;98295.22;;;15.87;72.89
61484;BME280;47349;55.640;37.692;2023-07-13T09:06:07;98298.63;;;15.83;75.88
61484;BME280;47349;55.640;37.692;2023-07-13T09:09:07;98314.84;;;15.83;77.66
61484;BME280;47349;55.640;37.692;2023-07-13T09:12:13;98327.72;;;15.92;79.35
61484;BME280;47349;55.640;37.692;2023-07-13T09:14:59;98300.25;;;15.67;80.89
61484;BME280;47349;55.640;37.692;2023-07-13T09:17:50;98301.31;;;15.54;83.30
61484;BME280;47349;55.640;37.692;2023-07-13T09:20:44;98277.81;;;15.38;83.95
61484;BME280;47349;55.640;37.692;2023-07-13T09:23:29;98310.16;;;15.50;84.54
61484;BME280;47349;55.640;37.692;2023-07-13T09:26:25;98305.84;;;15.37;86.39
61484;BME280;47349;55.640;37.692;2023-07-13T09:29:34;98309.00;;;15.46;88.44
61484;BME280;47349;55.640;37.692;2023-07-13T09:32:37;98300.31;;;15.43;87.07
61484;BME280;47349;55.640;37.692;2023-07-13T09:35:30;98328.09;;;15.56;86.79
61484;BME280;47349;55.640;37.692;2023-07-13T09:38:19;98320.75;;;15.39;88.09
61484;BME280;47349;55.640;37.692;2023-07-13T09:41:31;98354.44;;;15.37;88.53
61484;BME280;47349;55.640;37.692;2023-07-13T09:44:29;98321.03;;;15.26;90.52
61484;BME280;47349;55.640;37.692;2023-07-13T09:50:15;98337.22;;;15.26;90.61
61484;BME280;47349;55.640;37.692;2023-07-13T09:52:47;98318.63;;;15.01;90.17
61484;BME280;47349;55.640;37.692;2023-07-13T09:55:37;98346.66;;;15.12;91.01
61484;BME280;47349;55.640;37.692;2023-07-13T09:58:12;98349.72;;;15.04;92.59
61484;BME280;47349;55.640;37.692;2023-07-13T10:00:41;98359.69;;;14.91;92.66
61484;BME280;47349;55.640;37.692;2023-07-13T10:03:18;98343.16;;;14.88;93.51
61484;BME280;47349;55.640;37.692;2023-07-13T10:05:48;98352.34;;;14.75;94.06
61484;BME280;47349;55.640;37.692;2023-07-13T10:08:24;98330.53;;;14.65;94.63
61484;BME280;47349;55.640;37.692;2023-07-13T10:10:57;98348.22;;;14.73;96.03
61484;BME280;47349;55.640;37.692;2023-07-13T10:13:35;98353.25;;;14.69;96.58
61484;BME280;47349;55.640;37.692;2023-07-13T10:16:04;98311.28;;;14.50;96.07
61484;BME280;47349;55.640;37.692;2023-07-13T10:18:46;98349.84;;;14.50;95.49
61484;BME280;47349;55.640;37.692;2023-07-13T10:21:18;98353.34;;;14.39;93.81
61484;BME280;47349;55.640;37.692;2023-07-13T10:24:18;98346.63;;;14.30;94.08
61484;BME280;47349;55.640;37.692;2023-07-13T10:26:50;98337.84;;;14.23;96.03
61484;BME280;47349;55.640;37.692;2023-07-13T10:29:20;98361.63;;;14.14;96.09
61484;BME280;47349;55.640;37.692;2023-07-13T10:31:49;98314.38;;;14.00;97.30
61484;BME280;47349;55.640;37.692;2023-07-13T10:34:17;98346.72;;;14.11;97.15
61484;BME280;47349;55.640;37.692;2023-07-13T10:36:47;98336.06;;;14.05;98.86
61484;BME280;47349;55.640;37.692;2023-07-13T10:39:27;98359.03;;;14.19;98.56
61484;BME280;47349;55.640;37.692;2023-07-13T10:42:00;98334.53;;;14.09;98.81
61484;BME280;47349;55.640;37.692;2023-07-13T10:44:30;98345.00;;;14.17;98.90
61484;BME280;47349;55.640;37.692;2023-07-13T10:47:01;98347.19;;;14.08;100.00
61484;BME280;47349;55.640;37.692;2023-07-13T10:49:31;98372.84;;;14.11;100.00
61484;BME280;47349;55.640;37.692;2023-07-13T10:51:59;98356.91;;;13.98;98.54
61484;BME280;47349;55.640;37.692;2023-07-13T10:54:32;98342.44;;;13.92;100.00
61484;BME280;47349;55.640;37.692;2023-07-13T10:57:20;98365.44;;;14.06;100.00
61484;BME280;47349;55.640;37.692;2023-07-13T11:02:41;98356.59;;;13.87;100.00
61484;BME280;47349;55.640;37.692;2023-07-13T11:05:32;98352.88;;;13.88;100.00
61484;BME280;47349;55.640;37.692;2023-07-13T11:08:16;98371.25;;;13.92;100.00
61484;BME280;47349;55.640;37.692;2023-07-13T11:10:53;98371.50;;;13.90;100.00
61484;BME280;47349;55.640;37.692;2023-07-13T11:18:47;98354.72;;;13.76;100.00
61484;BME280;47349;55.640;37.692;2023-07-13T11:21:21;98345.69;;;13.71;100.00
61484;BME280;47349;55.640;37.692;2023-07-13T11:24:14;98349.25;;;13.83;100.00
61484;BME280;47349;55.640;37.692;2023-07-13T11:26:51;98343.38;;;13.86;100.00
61484;BME280;47349;55.640;37.692;2023-07-13T11:32:00;98364.50;;;14.01;100.00
61484;BME280;47349;55.640;37.692;2023-07-13T11:51:20;98345.66;;;14.01;100.00
61484;BME280;47349;55.640;37.692;2023-07-13T11:53:50;98342.13;;;13.88;100.00
61484;BME280;47349;55.640;37.692;2023-07-13T11:56:18;98338.22;;;13.84;100.00
61484;BME280;47349;55.640;37.692;2023-07-13T11:58:49;98318.50;;;13.72;100.00
61484;BME280;47349;55.640;37.692;2023-07-13T12:01:46;98331.41;;;13.82;100.00
61484;BME280;47349;55.640;37.692;2023-07-13T12:10:39;98346.19;;;13.79;100.00
61484;BME280;47349;55.640;37.692;2023-07-13T12:13:10;98332.09;;;13.66;100.00
61484;BME280;47349;55.640;37.692;2023-07-13T12:19:01;98343.56;;;13.73;100.00
61484;BME280;47349;55.640;37.692;2023-07-13T12:21:36;98343.34;;;13.74;100.00
61484;BME280;47349;55.640;37.692;2023-07-13T12:24:31;98352.88;;;13.88;100.00
61484;BME280;47349;55.640;37.692;2023-07-13T13:20:19;98330.16;;;13.84;100.00
61484;BME280;47349;55.640;37.692;2023-07-13T13:22:47;98308.56;;;13.73;100.00
61484;BME280;47349;55.640;37.692;2023-07-13T13:52:12;98282.16;;;13.51;100.00
61484;BME280;47349;55.640;37.692;2023-07-13T13:55:15;98326.25;;;13.69;100.00
61484;BME280;47349;55.640;37.692;2023-07-13T13:57:56;98280.13;;;13.35;100.00
61484;BME280;47349;55.640;37.692;2023-07-13T14:00:26;98322.50;;;13.70;100.00
61484;BME280;47349;55.640;37.692;2023-07-13T14:03:20;98313.81;;;13.68;100.00
61484;BME280;47349;55.640;37.692;2023-07-13T15:08:40;98283.94;;;13.09;100.00
61484;BME280;47349;55.640;37.692;2023-07-13T15:11:30;98275.59;;;12.99;100.00
61484;BME280;47349;55.640;37.692;2023-07-13T15:49:22;98280.38;;;12.97;100.00
61484;BME280;47349;55.640;37.692;2023-07-13T16:50:17;98296.84;;;13.19;100.00
61484;BME280;47349;55.640;37.692;2023-07-13T17:26:30;98196.00;;;12.61;100.00
61484;BME280;47349;55.640;37.692;2023-07-13T21:16:55;98277.47;;;12.80;100.00
61484;BME280;47349;55.640;37.692;2023-07-13T21:23:28;98286.97;;;12.82;100.00
61484;BME280;47349;55.640;37.692;2023-07-13T21:39:00;98312.19;;;13.00;100.00
61484;BME280;47349;55.640;37.692;2023-07-13T21:41:33;98273.66;;;12.69;100.00
61484;BME280;47349;55.640;37.692;2023-07-13T23:59:12;98266.47;;;13.48;100.00
